Time;durP1;ratioP1;P1;durP2;ratioP2;P2;SDS_P1;SDS_P2;PMS_P1;PMS_P2;Temp;Humidity;BMP_temperature;BMP_pressure;BME280_temperature;BME280_humidity;BME280_pressure;Samples;Min_cycle;Max_cycle;Signal;HPM_P1;HPM_P2
2021/08/24 00:01:49;;;;;;;8.30;7.70;;;17.70;99.90;;;;;;10519810;28;20204;-84
2021/08/24 00:06:51;;;;;;;8.23;7.63;;;17.70;99.90;;;;;;10523139;28;20234;-84
2021/08/24 00:11:53;;;;;;;9.97;9.10;;;17.70;99.90;;;;;;10519767;28;20211;-83
2021/08/24 00:16:56;;;;;;;8.57;7.87;;;17.70;99.90;;;;;;10501057;28;20267;-83
2021/08/24 00:21:58;;;;;;;8.20;7.50;;;17.70;99.90;;;;;;10500803;28;20612;-83
2021/08/24 00:27:00;;;;;;;6.80;6.20;;;17.70;99.90;;;;;;10540646;28;20212;-84
2021/08/24 00:32:04;;;;;;;8.70;7.90;;;17.60;99.90;;;;;;10519305;28;20192;-83
2021/08/24 00:37:07;;;;;;;8.70;8.10;;;17.60;99.90;;;;;;10538938;28;20598;-83
2021/08/24 00:42:11;;;;;;;8.77;7.90;;;17.70;99.90;;;;;;10524950;28;20315;-84
2021/08/24 00:47:16;;;;;;;10.10;8.50;;;17.70;99.90;;;;;;10506718;28;20267;-84
2021/08/24 00:52:22;;;;;;;8.73;7.93;;;17.70;99.90;;;;;;10541867;28;20283;-84
2021/08/24 00:57:26;;;;;;;9.20;8.30;;;17.70;99.90;;;;;;10505867;28;20256;-84
2021/08/24 01:02:29;;;;;;;8.90;8.20;;;17.70;99.90;;;;;;10518230;28;20200;-83
2021/08/24 01:07:37;;;;;;;8.77;8.07;;;17.70;99.90;;;;;;10507804;28;20564;-84
2021/08/24 01:12:48;;;;;;;9.87;8.97;;;17.70;99.90;;;;;;10521994;28;20253;-84
2021/08/24 01:17:58;;;;;;;10.10;9.30;;;17.80;99.90;;;;;;10526528;28;20593;-84
2021/08/24 01:23:35;;;;;;;8.93;8.23;;;17.80;99.90;;;;;;10530675;28;20200;-84
2021/08/24 01:28:47;;;;;;;8.70;8.10;;;17.80;99.90;;;;;;10514971;28;20776;-84
2021/08/24 01:34:01;;;;;;;8.40;7.70;;;17.80;99.90;;;;;;10533294;28;20273;-84
2021/08/24 01:39:08;;;;;;;9.07;8.37;;;17.80;99.90;;;;;;10551975;28;20218;-83
2021/08/24 01:44:16;;;;;;;11.67;8.30;;;17.80;99.90;;;;;;10519859;28;20295;-84
2021/08/24 01:49:21;;;;;;;9.03;8.23;;;17.70;99.90;;;;;;10534166;28;20283;-83
2021/08/24 01:54:28;;;;;;;9.20;8.50;;;17.70;99.90;;;;;;10505634;28;20626;-84
2021/08/24 01:59:35;;;;;;;7.40;6.90;;;17.70;99.90;;;;;;10528908;28;20223;-84
2021/08/24 02:04:44;;;;;;;7.57;6.97;;;17.60;99.90;;;;;;10524432;28;20222;-84
2021/08/24 02:09:52;;;;;;;7.03;6.53;;;17.60;99.90;;;;;;10546239;28;20196;-83
2021/08/24 02:14:54;;;;;;;7.20;6.60;;;17.60;99.90;;;;;;10541255;28;20568;-84
2021/08/24 02:20:00;;;;;;;7.77;7.17;;;17.60;99.90;;;;;;10505484;28;20235;-84
2021/08/24 02:25:08;;;;;;;6.70;6.20;;;17.50;99.90;;;;;;10522755;28;20755;-83
2021/08/24 02:30:11;;;;;;;7.77;7.07;;;17.50;99.90;;;;;;10521421;28;20298;-84
2021/08/24 02:35:23;;;;;;;6.47;5.87;;;17.40;99.90;;;;;;10519373;28;20227;-84
2021/08/24 02:40:35;;;;;;;7.60;6.90;;;17.30;99.90;;;;;;10529532;28;20679;-84
2021/08/24 02:45:45;;;;;;;6.80;6.30;;;17.20;99.90;;;;;;10547720;28;20312;-83
2021/08/24 02:50:48;;;;;;;6.47;5.97;;;17.10;99.90;;;;;;10546564;28;20200;-83
2021/08/24 02:55:52;;;;;;;6.83;6.13;;;17.00;99.90;;;;;;10526503;28;20262;-84
2021/08/24 03:00:54;;;;;;;5.80;5.30;;;16.80;99.90;;;;;;10544322;28;20200;-84
2021/08/24 03:05:59;;;;;;;6.40;5.17;;;16.70;99.90;;;;;;10547315;28;20571;-84
2021/08/24 03:11:03;;;;;;;5.83;5.43;;;16.60;99.90;;;;;;10530242;28;20557;-83
2021/08/24 03:16:13;;;;;;;6.13;5.47;;;16.60;99.90;;;;;;10544450;28;20303;-84
2021/08/24 03:21:18;;;;;;;5.80;5.40;;;16.50;99.90;;;;;;10521891;28;20250;-83
2021/08/24 03:26:23;;;;;;;5.70;5.13;;;16.40;99.90;;;;;;10522862;28;20860;-84
2021/08/24 03:31:28;;;;;;;5.20;4.80;;;16.30;99.90;;;;;;10523284;28;20195;-84
2021/08/24 03:36:31;;;;;;;7.80;6.20;;;16.20;99.90;;;;;;10507649;28;20318;-83
2021/08/24 03:41:34;;;;;;;6.30;5.70;;;16.20;99.90;;;;;;10526529;28;20204;-83
2021/08/24 03:46:36;;;;;;;9.00;8.20;;;16.20;99.90;;;;;;10517479;28;20307;-83
2021/08/24 03:51:38;;;;;;;7.00;6.23;;;16.10;99.90;;;;;;10526378;28;20204;-84
2021/08/24 03:56:43;;;;;;;7.07;6.47;;;16.10;99.90;;;;;;10543871;28;20779;-83
2021/08/24 04:01:45;;;;;;;7.23;6.03;;;16.10;99.90;;;;;;10525573;28;20586;-84
2021/08/24 04:06:47;;;;;;;6.10;5.60;;;16.00;99.90;;;;;;10507192;28;20220;-83
2021/08/24 04:11:50;;;;;;;6.63;6.13;;;16.00;99.90;;;;;;10541120;28;20249;-83
2021/08/24 04:16:52;;;;;;;8.53;6.70;;;15.90;99.90;;;;;;10544642;28;20212;-83
2021/08/24 04:21:54;;;;;;;6.67;6.17;;;15.90;99.90;;;;;;10530827;28;20204;-83
2021/08/24 04:26:58;;;;;;;6.60;6.00;;;15.80;99.90;;;;;;10526254;28;20643;-83
2021/08/24 04:32:00;;;;;;;7.33;6.67;;;15.80;99.90;;;;;;10522059;28;20557;-83
2021/08/24 04:37:03;;;;;;;7.70;7.00;;;15.80;99.90;;;;;;10537783;28;20224;-83
2021/08/24 04:42:07;;;;;;;7.60;6.80;;;15.80;99.90;;;;;;10524017;28;20207;-84
2021/08/24 04:47:09;;;;;;;8.70;7.80;;;15.70;99.90;;;;;;10538156;28;20276;-83
2021/08/24 04:52:11;;;;;;;8.50;7.80;;;15.70;99.90;;;;;;10527433;28;20286;-83
2021/08/24 04:57:15;;;;;;;7.57;6.97;;;15.70;99.90;;;;;;10540061;28;20228;-83
2021/08/24 05:02:18;;;;;;;9.57;7.83;;;15.60;99.90;;;;;;10547947;28;20208;-84
2021/08/24 05:07:20;;;;;;;7.90;7.30;;;15.60;99.90;;;;;;10547681;28;20214;-84
2021/08/24 05:12:23;;;;;;;9.17;7.70;;;15.60;99.90;;;;;;10539016;28;20211;-84
2021/08/24 05:17:26;;;;;;;8.40;7.70;;;15.60;99.90;;;;;;10513684;28;20207;-84
2021/08/24 05:22:28;;;;;;;8.80;7.73;;;15.70;99.90;;;;;;10534321;28;20631;-84
2021/08/24 05:27:32;;;;;;;8.50;7.80;;;15.70;99.90;;;;;;10512850;28;20238;-84
2021/08/24 05:32:35;;;;;;;9.03;8.30;;;15.70;99.90;;;;;;10509974;28;20671;-84
2021/08/24 05:37:38;;;;;;;10.03;9.23;;;15.80;99.90;;;;;;10511625;28;20232;-84
2021/08/24 05:42:42;;;;;;;9.27;8.57;;;15.90;99.90;;;;;;10532039;28;20218;-84
2021/08/24 05:47:44;;;;;;;10.13;9.10;;;16.00;99.90;;;;;;10511626;28;20224;-84
2021/08/24 05:52:46;;;;;;;9.60;8.80;;;16.10;99.90;;;;;;10529635;28;20209;-84
2021/08/24 05:57:51;;;;;;;10.37;9.37;;;16.20;99.90;;;;;;10528866;28;20230;-84
2021/08/24 06:02:53;;;;;;;9.93;9.10;;;16.40;99.90;;;;;;10529250;28;20192;-84
2021/08/24 06:07:55;;;;;;;9.83;9.03;;;16.50;99.90;;;;;;10531976;28;20207;-84
2021/08/24 06:12:58;;;;;;;10.67;8.77;;;16.70;99.90;;;;;;10513347;28;20291;-84
2021/08/24 06:18:03;;;;;;;9.60;8.80;;;16.80;99.90;;;;;;10519345;28;20600;-84
2021/08/24 06:23:05;;;;;;;9.13;8.20;;;17.00;99.90;;;;;;10547490;28;20231;-85
2021/08/24 06:28:09;;;;;;;9.43;8.67;;;17.10;99.90;;;;;;10511297;28;20590;-84
2021/08/24 06:33:11;;;;;;;9.20;8.43;;;17.20;99.90;;;;;;10526163;28;20637;-84
2021/08/24 06:38:13;;;;;;;9.30;8.50;;;17.30;99.90;;;;;;10529629;28;20710;-84
2021/08/24 06:43:18;;;;;;;8.20;7.50;;;17.40;99.90;;;;;;10549472;28;20224;-84
2021/08/24 06:48:20;;;;;;;7.10;6.50;;;17.50;99.90;;;;;;10514972;28;20230;-84
2021/08/24 06:53:22;;;;;;;6.97;6.30;;;17.60;99.90;;;;;;10527558;28;20238;-84
2021/08/24 06:58:26;;;;;;;7.03;6.53;;;17.60;99.90;;;;;;10552597;28;20223;-84
2021/08/24 07:03:28;;;;;;;6.60;6.00;;;17.50;99.90;;;;;;10508322;28;20592;-84
2021/08/24 07:08:30;;;;;;;6.60;6.10;;;17.60;99.90;;;;;;10508294;28;20457;-84
2021/08/24 07:13:34;;;;;;;8.80;6.37;;;17.70;99.90;;;;;;10514425;28;20588;-84
2021/08/24 07:18:36;;;;;;;6.77;6.27;;;17.70;99.90;;;;;;10508477;28;20243;-84
2021/08/24 07:23:38;;;;;;;6.00;5.40;;;17.70;99.90;;;;;;10526354;28;20219;-84
2021/08/24 07:28:42;;;;;;;5.80;5.40;;;17.50;99.90;;;;;;10525425;28;20196;-84
2021/08/24 07:33:45;;;;;;;6.00;5.50;;;17.50;99.90;;;;;;10526420;28;20230;-84
2021/08/24 07:38:47;;;;;;;6.10;5.60;;;17.50;99.90;;;;;;10526216;28;20231;-84
2021/08/24 07:43:51;;;;;;;6.57;5.97;;;17.50;99.90;;;;;;10520273;28;20224;-84
2021/08/24 07:48:53;;;;;;;7.40;6.27;;;17.50;99.90;;;;;;10539677;28;20200;-84
2021/08/24 07:53:55;;;;;;;6.63;6.00;;;17.50;99.90;;;;;;10525669;28;20231;-84
2021/08/24 07:58:58;;;;;;;6.23;5.77;;;17.60;99.90;;;;;;10543421;28;20220;-84
2021/08/24 08:04:00;;;;;;;6.00;5.47;;;17.70;99.90;;;;;;10544424;28;20222;-84
2021/08/24 08:09:02;;;;;;;6.23;5.63;;;17.90;99.90;;;;;;10526950;28;20216;-84
2021/08/24 08:14:06;;;;;;;5.77;5.30;;;18.00;99.90;;;;;;10530357;28;20230;-84
2021/08/24 08:19:08;;;;;;;5.43;5.03;;;18.00;99.90;;;;;;10521912;28;20227;-84
2021/08/24 08:24:11;;;;;;;9.03;5.27;;;18.20;99.90;;;;;;10524632;28;20223;-84
2021/08/24 08:29:15;;;;;;;5.83;5.30;;;18.20;99.90;;;;;;10535297;28;20218;-84
2021/08/24 08:34:18;;;;;;;5.20;4.70;;;18.40;99.90;;;;;;10523883;28;20223;-84
2021/08/24 08:39:20;;;;;;;5.00;4.50;;;18.70;99.90;;;;;;10551820;28;20224;-84
2021/08/24 08:44:33;;;;;;;5.13;4.70;;;19.00;99.90;;;;;;10548185;28;20223;-84
2021/08/24 08:49:45;;;;;;;5.20;4.77;;;19.20;99.90;;;;;;10534880;28;20208;-84
2021/08/24 08:54:55;;;;;;;4.93;4.53;;;19.40;99.90;;;;;;10515741;28;20238;-83
2021/08/24 09:00:07;;;;;;;5.93;4.90;;;19.40;99.90;;;;;;10531067;28;20223;-84
2021/08/24 09:05:10;;;;;;;4.73;4.33;;;19.30;99.90;;;;;;10522955;28;20336;-84
2021/08/24 09:10:16;;;;;;;6.40;5.90;;;19.20;99.90;;;;;;10533479;28;20196;-84
2021/08/24 09:15:30;;;;;;;5.50;5.07;;;19.10;99.90;;;;;;10527732;28;20235;-84
2021/08/24 09:20:36;;;;;;;5.57;5.07;;;19.00;99.90;;;;;;10550649;28;20223;-84
2021/08/24 09:25:53;;;;;;;5.60;5.10;;;18.90;99.90;;;;;;10525454;28;20232;-84
2021/08/24 09:30:57;;;;;;;5.80;5.33;;;18.80;99.90;;;;;;10522411;28;20196;-84
2021/08/24 09:36:00;;;;;;;5.07;4.67;;;18.70;99.90;;;;;;10494203;28;20216;-84
2021/08/24 09:41:19;;;;;;;4.60;4.30;;;18.70;99.90;;;;;;10493927;28;20297;-84
2021/08/24 09:46:40;;;;;;;5.53;5.13;;;18.70;99.90;;;;;;10498343;28;20241;-84
2021/08/24 09:51:46;;;;;;;5.43;5.03;;;18.70;99.90;;;;;;10498228;28;20196;-84
2021/08/24 09:56:53;;;;;;;5.20;4.80;;;18.80;99.90;;;;;;10496904;28;20651;-84
2021/08/24 10:01:56;;;;;;;5.83;5.33;;;18.90;99.90;;;;;;10512300;28;20192;-84
2021/08/24 10:07:03;;;;;;;5.30;4.80;;;19.10;99.90;;;;;;10502599;28;20284;-84
2021/08/24 10:12:20;;;;;;;4.73;4.33;;;19.10;99.90;;;;;;10498556;28;20203;-84
2021/08/24 10:17:30;;;;;;;4.80;4.40;;;19.10;99.90;;;;;;10477178;28;20240;-84
2021/08/24 10:22:37;;;;;;;5.27;4.80;;;19.20;99.90;;;;;;10474134;28;20200;-84
2021/08/24 10:27:43;;;;;;;6.10;5.60;;;19.20;99.90;;;;;;10497755;28;20304;-84
2021/08/24 10:32:55;;;;;;;5.30;4.90;;;19.20;99.90;;;;;;10501064;28;20201;-83
2021/08/24 10:37:58;;;;;;;5.37;4.97;;;19.30;99.90;;;;;;10519295;28;20216;-84
2021/08/24 10:43:19;;;;;;;5.63;5.17;;;19.40;99.90;;;;;;10523458;28;20356;-84
2021/08/24 10:48:23;;;;;;;5.20;4.80;;;19.50;99.90;;;;;;10531153;28;20656;-84
2021/08/24 10:53:39;;;;;;;5.60;5.20;;;19.50;99.90;;;;;;10513429;28;20242;-84
2021/08/24 10:58:49;;;;;;;4.57;4.27;;;19.50;99.90;;;;;;10542334;28;20226;-84
2021/08/24 11:04:12;;;;;;;5.37;4.87;;;19.60;99.90;;;;;;10498531;28;20224;-84
2021/08/24 11:09:22;;;;;;;5.50;5.00;;;19.70;99.90;;;;;;10520527;28;20653;-84
2021/08/24 11:14:37;;;;;;;5.80;4.93;;;19.80;99.90;;;;;;10540587;28;20230;-84
2021/08/24 11:19:57;;;;;;;4.90;4.43;;;19.80;99.90;;;;;;10526791;28;20310;-84
2021/08/24 11:25:10;;;;;;;5.87;5.40;;;19.80;99.90;;;;;;10527256;28;20219;-84
2021/08/24 11:30:21;;;;;;;5.10;4.70;;;19.80;99.90;;;;;;10546016;28;20192;-84
2021/08/24 11:35:32;;;;;;;4.70;4.40;;;19.80;99.90;;;;;;10521122;28;20266;-84
2021/08/24 11:40:45;;;;;;;5.70;5.30;;;19.90;99.90;;;;;;10510774;28;20246;-84
2021/08/24 11:45:49;;;;;;;5.10;4.80;;;19.90;99.90;;;;;;10527293;28;20306;-84
2021/08/24 11:50:59;;;;;;;5.50;5.07;;;19.90;99.90;;;;;;10546703;28;20283;-84
2021/08/24 11:56:12;;;;;;;4.80;4.50;;;20.00;99.90;;;;;;10523380;28;20262;-84
2021/08/24 12:01:18;;;;;;;5.10;4.80;;;20.10;99.90;;;;;;10503299;28;20246;-83
2021/08/24 12:06:26;;;;;;;6.10;5.30;;;20.30;99.90;;;;;;10528817;28;20310;-83
2021/08/24 12:11:42;;;;;;;5.37;4.93;;;20.50;99.90;;;;;;10518513;28;20215;-84
2021/08/24 12:16:56;;;;;;;4.40;4.10;;;20.70;99.90;;;;;;10538664;28;20238;-84
2021/08/24 12:22:26;;;;;;;5.50;5.00;;;20.80;99.90;;;;;;10511184;28;20223;-83
2021/08/24 12:27:55;;;;;;;5.37;4.70;;;20.90;99.90;;;;;;10492506;28;20266;-84
2021/08/24 12:33:32;;;;;;;4.83;4.53;;;20.90;99.90;;;;;;10480631;28;20235;-84
2021/08/24 12:38:46;;;;;;;5.80;5.30;;;20.90;99.90;;;;;;10481871;28;20307;-83
2021/08/24 12:43:50;;;;;;;5.40;4.90;;;20.70;99.90;;;;;;10507371;28;20273;-83
2021/08/24 12:49:38;;;;;;;5.10;4.70;;;20.50;99.90;;;;;;10498716;28;20220;-83
2021/08/24 12:54:48;;;;;;;5.27;4.87;;;20.30;99.90;;;;;;10533257;28;20235;-84
2021/08/24 12:59:53;;;;;;;5.30;4.90;;;20.20;99.90;;;;;;10500048;28;20253;-84
2021/08/24 13:04:58;;;;;;;5.47;5.07;;;20.10;99.90;;;;;;10500003;28;20238;-84
2021/08/24 13:10:17;;;;;;;5.03;4.73;;;20.10;99.90;;;;;;10517224;28;20265;-84
2021/08/24 13:15:54;;;;;;;5.83;5.43;;;20.20;99.90;;;;;;10523177;28;20223;-84
2021/08/24 13:21:06;;;;;;;5.00;4.60;;;20.40;99.90;;;;;;10507534;28;20219;-84
2021/08/24 13:26:14;;;;;;;5.07;4.67;;;20.60;99.90;;;;;;10506639;28;20371;-84
2021/08/24 13:31:23;;;;;;;5.50;5.00;;;20.70;99.90;;;;;;10523508;28;20306;-84
2021/08/24 13:36:31;;;;;;;5.57;5.17;;;20.80;99.90;;;;;;10523173;28;20215;-84
2021/08/24 13:41:39;;;;;;;5.50;5.00;;;20.70;99.90;;;;;;10523789;28;20248;-83
2021/08/24 13:46:42;;;;;;;5.37;4.83;;;20.70;99.90;;;;;;10523076;28;20691;-83
2021/08/24 13:51:50;;;;;;;5.13;4.80;;;20.60;99.90;;;;;;10507632;28;20220;-83
2021/08/24 13:56:54;;;;;;;4.93;4.63;;;20.60;99.90;;;;;;10533020;28;20220;-83
2021/08/24 14:01:57;;;;;;;5.07;4.67;;;20.60;99.90;;;;;;10528132;28;20204;-83
2021/08/24 14:07:04;;;;;;;5.73;5.23;;;20.70;99.90;;;;;;10510578;28;20322;-83
2021/08/24 14:12:18;;;;;;;6.47;5.03;;;20.80;99.90;;;;;;10520730;28;20220;-84
2021/08/24 14:17:26;;;;;;;4.93;4.53;;;20.90;99.90;;;;;;10503540;28;20228;-83
2021/08/24 14:22:29;;;;;;;6.30;5.80;;;21.00;99.90;;;;;;10503693;28;20210;-84
2021/08/24 14:27:33;;;;;;;5.50;5.20;;;21.10;99.90;;;;;;10520316;28;20614;-84
2021/08/24 14:32:37;;;;;;;4.97;4.67;;;21.20;99.90;;;;;;10519829;28;20219;-84
2021/08/24 14:37:46;;;;;;;5.13;4.83;;;21.20;99.90;;;;;;10519768;28;20244;-83
2021/08/24 14:42:57;;;;;;;5.60;5.20;;;21.20;99.90;;;;;;10519735;28;20200;-84
2021/08/24 14:48:01;;;;;;;5.50;5.10;;;21.20;99.90;;;;;;10503736;28;20721;-83
2021/08/24 14:53:05;;;;;;;5.70;5.30;;;21.20;99.90;;;;;;10538737;28;21349;-83
2021/08/24 14:58:19;;;;;;;6.47;5.97;;;21.10;99.90;;;;;;10521168;28;20231;-83
2021/08/24 15:03:29;;;;;;;5.40;4.90;;;21.00;99.90;;;;;;10503510;28;20226;-84
2021/08/24 15:08:39;;;;;;;5.97;5.57;;;21.00;99.90;;;;;;10520530;28;20234;-84
2021/08/24 15:13:52;;;;;;;6.13;5.73;;;20.90;99.90;;;;;;10509079;28;20216;-84
2021/08/24 15:18:58;;;;;;;6.63;6.17;;;20.90;99.90;;;;;;10490421;28;20231;-82
2021/08/24 15:24:06;;;;;;;6.93;6.33;;;20.90;99.90;;;;;;10469860;28;20224;-81
2021/08/24 15:29:26;;;;;;;5.93;5.53;;;20.90;99.90;;;;;;10486174;28;20272;-83
2021/08/24 15:34:31;;;;;;;6.80;6.30;;;20.80;99.90;;;;;;10485083;28;20239;-81
2021/08/24 15:39:35;;;;;;;6.43;5.93;;;20.90;99.90;;;;;;10481695;28;20193;-83
2021/08/24 15:44:43;;;;;;;7.40;6.70;;;20.90;99.90;;;;;;10484535;28;20219;-82
2021/08/24 15:49:46;;;;;;;6.03;5.63;;;21.00;99.90;;;;;;10489253;28;20220;-82
2021/08/24 15:54:49;;;;;;;6.73;5.80;;;20.90;99.90;;;;;;10516929;28;20299;-83
2021/08/24 15:59:52;;;;;;;7.23;6.40;;;20.70;99.90;;;;;;10521619;28;20224;-82
2021/08/24 16:04:55;;;;;;;7.23;6.63;;;20.60;99.90;;;;;;10496891;28;20220;-82
2021/08/24 16:09:58;;;;;;;7.80;7.20;;;20.40;99.90;;;;;;10513252;28;20226;-82
2021/08/24 16:15:00;;;;;;;8.43;7.83;;;20.30;99.90;;;;;;10535632;28;20239;-82
2021/08/24 16:20:08;;;;;;;8.40;7.70;;;20.20;99.90;;;;;;10519604;28;20227;-83
2021/08/24 16:25:13;;;;;;;8.80;8.00;;;20.20;99.90;;;;;;10496144;28;20242;-82
2021/08/24 16:30:17;;;;;;;8.50;7.80;;;20.10;99.90;;;;;;10518410;28;20637;-81
2021/08/24 16:35:29;;;;;;;7.93;7.33;;;20.10;99.90;;;;;;10501869;28;20219;-82
2021/08/24 16:40:31;;;;;;;9.13;8.33;;;20.10;99.90;;;;;;10519154;28;20295;-83
2021/08/24 16:45:34;;;;;;;8.87;8.07;;;20.10;99.90;;;;;;10511596;28;20222;-82
2021/08/24 16:50:39;;;;;;;9.47;8.73;;;20.10;99.90;;;;;;10544227;28;20220;-82
2021/08/24 16:55:42;;;;;;;8.00;7.40;;;20.10;99.90;;;;;;10508047;28;20246;-82
2021/08/24 17:00:45;;;;;;;8.37;7.77;;;20.00;99.90;;;;;;10526331;28;20257;-82
2021/08/24 17:05:48;;;;;;;8.90;8.10;;;20.00;99.90;;;;;;10526705;28;20604;-83
2021/08/24 17:10:50;;;;;;;8.60;7.80;;;19.90;99.90;;;;;;10523740;28;20246;-83
2021/08/24 17:15:54;;;;;;;9.90;9.10;;;19.90;99.90;;;;;;10509131;28;20712;-82
2021/08/24 17:20:58;;;;;;;8.97;8.27;;;19.90;99.90;;;;;;10555389;28;20515;-82
2021/08/24 17:26:02;;;;;;;9.37;8.67;;;19.90;99.90;;;;;;10526288;28;20710;-81
2021/08/24 17:31:07;;;;;;;9.33;8.63;;;19.90;99.90;;;;;;10514463;28;20230;-83
2021/08/24 17:36:11;;;;;;;9.87;9.07;;;19.80;99.90;;;;;;10486866;28;20307;-83
2021/08/24 17:41:18;;;;;;;9.17;8.47;;;19.80;99.90;;;;;;10487347;28;20215;-82
2021/08/24 17:46:20;;;;;;;9.90;9.10;;;19.70;99.90;;;;;;10523251;28;20220;-81
2021/08/24 17:51:27;;;;;;;9.67;8.77;;;19.70;99.90;;;;;;10526218;28;20314;-81
2021/08/24 17:56:29;;;;;;;10.07;9.27;;;19.80;99.90;;;;;;10564988;28;20232;-82
2021/08/24 18:01:32;;;;;;;9.50;8.70;;;19.80;99.90;;;;;;10499605;28;20203;-82
2021/08/24 18:06:38;;;;;;;9.70;8.90;;;19.80;99.90;;;;;;10506556;28;20219;-82
2021/08/24 18:11:42;;;;;;;9.83;9.10;;;19.80;99.90;;;;;;10540849;28;20640;-82
2021/08/24 18:16:45;;;;;;;9.70;8.83;;;19.70;99.90;;;;;;10521026;28;20269;-83
2021/08/24 18:21:51;;;;;;;10.47;9.63;;;19.60;99.90;;;;;;10523018;28;20200;-83
2021/08/24 18:26:53;;;;;;;9.90;9.00;;;19.60;99.90;;;;;;10539143;28;20586;-82
2021/08/24 18:31:56;;;;;;;9.97;9.00;;;19.50;99.90;;;;;;10515462;28;20228;-82
2021/08/24 18:37:00;;;;;;;9.93;9.10;;;19.50;99.90;;;;;;10515594;28;20269;-83
2021/08/24 18:42:02;;;;;;;9.97;9.17;;;19.50;99.90;;;;;;10518216;28;20203;-82
2021/08/24 18:47:04;;;;;;;9.27;8.57;;;19.50;99.90;;;;;;10511223;28;20224;-82
2021/08/24 18:52:08;;;;;;;9.93;9.13;;;19.50;99.90;;;;;;10505842;28;20219;-82
2021/08/24 18:57:10;;;;;;;9.77;8.97;;;19.50;99.90;;;;;;10498349;28;20228;-81
2021/08/24 19:02:12;;;;;;;9.23;8.53;;;19.50;99.90;;;;;;10534994;28;20184;-81
2021/08/24 19:07:16;;;;;;;10.07;9.33;;;19.50;99.90;;;;;;10519016;28;20234;-82
2021/08/24 19:12:18;;;;;;;9.53;8.83;;;19.50;99.90;;;;;;10530866;28;20590;-82
2021/08/24 19:17:20;;;;;;;10.00;9.30;;;19.50;99.90;;;;;;10520237;28;20692;-83
2021/08/24 19:22:24;;;;;;;9.83;8.93;;;19.40;99.90;;;;;;10519238;28;20248;-82
2021/08/24 19:27:27;;;;;;;9.70;9.00;;;19.40;99.90;;;;;;10530095;28;20636;-82
2021/08/24 19:32:29;;;;;;;10.30;9.40;;;19.40;99.90;;;;;;10511100;28;20314;-82
2021/08/24 19:37:32;;;;;;;10.17;9.07;;;19.30;99.90;;;;;;10532424;28;20325;-82
2021/08/24 19:42:36;;;;;;;10.20;9.37;;;19.30;99.90;;;;;;10514907;28;20283;-82
2021/08/24 19:47:38;;;;;;;9.93;9.13;;;19.30;99.90;;;;;;10498971;28;20273;-82
2021/08/24 19:52:42;;;;;;;10.27;9.57;;;19.30;99.90;;;;;;10517861;28;20310;-82
2021/08/24 19:57:44;;;;;;;10.63;9.73;;;19.30;99.90;;;;;;10535463;28;20216;-84
2021/08/24 20:02:47;;;;;;;10.17;9.37;;;19.20;99.90;;;;;;10492370;28;20274;-83
2021/08/24 20:07:50;;;;;;;10.50;9.60;;;19.10;99.90;;;;;;10512072;28;20592;-82
2021/08/24 20:12:52;;;;;;;10.63;9.80;;;19.10;99.90;;;;;;10517737;28;20223;-83
2021/08/24 20:17:55;;;;;;;11.00;10.10;;;19.00;99.90;;;;;;10518000;28;20198;-82
2021/08/24 20:22:58;;;;;;;10.63;9.83;;;19.00;99.90;;;;;;10534283;28;20659;-82
2021/08/24 20:28:00;;;;;;;11.20;10.20;;;18.90;99.90;;;;;;10526053;28;20275;-83
2021/08/24 20:33:04;;;;;;;11.00;10.10;;;18.80;99.90;;;;;;10510226;28;20300;-82
2021/08/24 20:38:09;;;;;;;11.00;10.13;;;18.80;99.90;;;;;;10496671;28;20200;-83
2021/08/24 20:43:12;;;;;;;11.40;10.40;;;18.70;99.90;;;;;;10532796;28;20279;-81
2021/08/24 20:48:14;;;;;;;10.80;10.00;;;18.70;99.90;;;;;;10521778;28;20279;-82
2021/08/24 20:53:19;;;;;;;11.97;10.90;;;18.70;99.90;;;;;;10485151;28;20568;-82
2021/08/24 20:58:23;;;;;;;10.37;9.57;;;18.70;99.90;;;;;;10492115;28;20619;-82
2021/08/24 21:03:26;;;;;;;11.00;10.20;;;18.70;99.90;;;;;;10541723;28;20684;-82
2021/08/24 21:08:30;;;;;;;12.00;10.90;;;18.70;99.90;;;;;;10525850;28;20579;-82
2021/08/24 21:13:32;;;;;;;12.47;11.47;;;18.70;99.90;;;;;;10496611;28;20277;-82
2021/08/24 21:18:34;;;;;;;12.80;11.70;;;18.70;99.90;;;;;;10510064;28;20196;-82
2021/08/24 21:23:37;;;;;;;12.63;11.63;;;18.70;99.90;;;;;;10516990;28;20237;-82
2021/08/24 21:28:39;;;;;;;12.10;11.17;;;18.80;99.90;;;;;;10525370;28;20271;-82
2021/08/24 21:33:42;;;;;;;12.63;11.63;;;18.80;99.90;;;;;;10506385;28;20262;-83
2021/08/24 21:38:47;;;;;;;11.90;11.00;;;18.80;99.90;;;;;;10524462;28;20568;-83
2021/08/24 21:43:53;;;;;;;13.23;12.17;;;18.80;99.90;;;;;;10495370;28;20273;-82
2021/08/24 21:48:55;;;;;;;13.03;11.80;;;18.80;99.90;;;;;;10526218;28;20250;-82
2021/08/24 21:53:59;;;;;;;10.60;9.80;;;18.80;99.90;;;;;;10497624;28;20553;-82
2021/08/24 21:59:01;;;;;;;12.60;11.50;;;18.70;99.90;;;;;;10523616;28;20223;-82
2021/08/24 22:04:03;;;;;;;10.60;9.40;;;18.70;99.90;;;;;;10500764;28;20220;-83
2021/08/24 22:09:08;;;;;;;11.73;10.57;;;18.70;99.90;;;;;;10508289;28;20208;-81
2021/08/24 22:14:12;;;;;;;11.33;10.43;;;18.70;99.90;;;;;;10523991;28;20232;-81
2021/08/24 22:19:15;;;;;;;11.20;10.30;;;18.60;99.90;;;;;;10514276;28;20196;-82
2021/08/24 22:24:24;;;;;;;11.80;10.90;;;18.60;99.90;;;;;;10537799;28;20212;-82
2021/08/24 22:29:26;;;;;;;12.77;11.50;;;18.50;99.90;;;;;;10518519;28;20234;-82
2021/08/24 22:34:28;;;;;;;13.07;11.97;;;18.40;99.90;;;;;;10521260;28;20288;-81
2021/08/24 22:39:32;;;;;;;11.67;10.57;;;18.20;99.90;;;;;;10540443;28;20200;-83
2021/08/24 22:44:34;;;;;;;12.10;11.03;;;18.10;99.90;;;;;;10519125;28;20798;-82
2021/08/24 22:49:37;;;;;;;13.00;11.70;;;18.00;99.90;;;;;;10515870;28;20227;-82
2021/08/24 22:54:40;;;;;;;11.77;10.93;;;17.90;99.90;;;;;;10540858;28;20230;-82
2021/08/24 22:59:42;;;;;;;12.27;11.27;;;17.70;99.90;;;;;;10522522;28;20268;-82
2021/08/24 23:04:44;;;;;;;11.53;10.73;;;17.70;99.90;;;;;;10503920;28;20604;-81
2021/08/24 23:16:04;;;;;;;11.80;10.90;;;17.50;99.90;;;;;;10519838;28;20690;-82
2021/08/24 23:21:07;;;;;;;12.60;11.50;;;17.50;99.90;;;;;;10505252;28;20241;-83
2021/08/24 23:26:09;;;;;;;12.70;11.60;;;17.40;99.90;;;;;;10538862;28;20302;-82
2021/08/24 23:31:12;;;;;;;12.70;11.60;;;17.40;99.90;;;;;;10521056;28;20227;-82
2021/08/24 23:36:14;;;;;;;12.50;11.40;;;17.20;99.90;;;;;;10533009;28;20679;-83
2021/08/24 23:41:16;;;;;;;11.70;10.70;;;17.10;99.90;;;;;;10508537;28;20216;-82
2021/08/24 23:52:36;;;;;;;13.20;11.90;;;17.00;99.90;;;;;;10493869;28;20203;-81
2021/08/24 23:57:38;;;;;;;12.67;11.67;;;16.90;99.90;;;;;;10499725;28;20303;-83
